East Freetown, Massachusetts
Current Conditions -  °F | °C
As of 5:53 PM on Monday 24 Nov 2014 (Local Time) from KEWB Reporting Station
Overcast Overcast  
Wind Chill: 61°   Ceiling: 700
Heat Index: 61°   Visibility: 7mi
Dew Point: 60°   Wind: 22mph
Humidity: 97%   Direction: 210°SSW
Pressure: 29.68"   Gusts: 32mph
Location:  41.77°N, 70.96°W
Report Text: KEWB 242253Z 21019G28KT 7SM OVC007 16/16 A2968 RMK AO2 PK WND 20034/2155 CIG 005V009 SLP050 T01610156
Loading
Personal Weather Stations






























Interactive Weather Map New forecast layout! Learn more

10-Day Weather Forecast

Advertisements
Track Severe Weather on mobile